Time;durP1;ratioP1;P1;durP2;ratioP2;P2;SDS_P1;SDS_P2;PMS_P1;PMS_P2;Temp;Humidity;BMP_temperature;BMP_pressure;BME280_temperature;BME280_humidity;BME280_pressure;Samples;Min_cycle;Max_cycle;Signal;HPM_P1;HPM_P2
2022/05/01 00:02:05;;;;;;;26.17;15.43;;;7.00;87.50;;;;;;5034907;28;20034;-64
2022/05/01 00:04:31;;;;;;;27.05;15.98;;;7.00;87.50;;;;;;5040433;28;20035;-64
2022/05/01 00:06:56;;;;;;;29.27;15.70;;;7.00;87.40;;;;;;5041724;28;20041;-64
2022/05/01 00:09:22;;;;;;;27.15;16.05;;;7.00;87.40;;;;;;5042816;28;20742;-64
2022/05/01 00:11:47;;;;;;;26.23;15.63;;;7.00;87.60;;;;;;5049444;28;20488;-64
2022/05/01 00:14:13;;;;;;;25.42;15.07;;;6.90;88.10;;;;;;5040086;28;20045;-64
2022/05/01 00:16:39;;;;;;;25.42;14.85;;;7.00;88.10;;;;;;5035197;28;20480;-64
2022/05/01 00:19:04;;;;;;;22.95;14.27;;;7.00;87.70;;;;;;5046628;28;20076;-64
2022/05/01 00:21:30;;;;;;;22.77;14.25;;;7.00;87.80;;;;;;5030507;28;20046;-64
2022/05/01 00:23:55;;;;;;;25.63;15.07;;;7.00;88.40;;;;;;5036279;28;20047;-64
2022/05/01 00:26:21;;;;;;;23.77;14.57;;;6.90;88.40;;;;;;5038234;28;20049;-64
2022/05/01 00:28:47;;;;;;;30.10;14.82;;;6.90;88.90;;;;;;5047053;28;20055;-64
2022/05/01 00:31:16;;;;;;;23.90;14.73;;;6.90;88.80;;;;;;5039766;28;20040;-65
2022/05/01 00:36:25;;;;;;;24.25;14.05;;;6.90;88.80;;;;;;5036387;28;20041;-64
2022/05/01 00:38:55;;;;;;;23.73;14.38;;;6.90;88.80;;;;;;5036981;28;20033;-64
2022/05/01 00:41:26;;;;;;;19.30;12.50;;;6.90;88.70;;;;;;5045731;28;20037;-65
2022/05/01 00:44:00;;;;;;;21.92;14.15;;;7.00;88.70;;;;;;5045249;28;20444;-64
2022/05/01 00:46:27;;;;;;;22.15;13.23;;;7.00;88.70;;;;;;5020174;28;20128;-64
2022/05/01 00:48:53;;;;;;;24.35;13.98;;;7.00;88.60;;;;;;5043144;28;20481;-64
2022/05/01 00:51:22;;;;;;;24.77;13.65;;;7.00;88.70;;;;;;5046474;28;20119;-64
2022/05/01 00:53:49;;;;;;;20.50;14.40;;;7.00;88.80;;;;;;5043922;28;20068;-64
2022/05/01 00:56:16;;;;;;;22.60;15.07;;;7.00;88.90;;;;;;5037110;28;20044;-65
2022/05/01 00:58:42;;;;;;;23.55;14.77;;;7.00;89.00;;;;;;5046704;28;20098;-64
2022/05/01 01:01:10;;;;;;;24.60;15.52;;;7.00;89.00;;;;;;5048282;28;20396;-64
2022/05/01 01:03:35;;;;;;;26.98;14.70;;;7.00;89.30;;;;;;5034789;28;20399;-64
2022/05/01 01:06:01;;;;;;;22.88;14.98;;;7.00;89.40;;;;;;5037781;28;20048;-65
2022/05/01 01:08:26;;;;;;;24.70;15.00;;;7.00;89.30;;;;;;5045833;28;20043;-64
2022/05/01 01:10:52;;;;;;;22.65;13.85;;;7.00;89.20;;;;;;5044204;28;20488;-64
2022/05/01 01:13:26;;;;;;;24.88;15.73;;;7.00;89.20;;;;;;5043729;28;20045;-64
2022/05/01 01:15:53;;;;;;;26.67;16.00;;;7.00;89.60;;;;;;5038829;28;20047;-64
2022/05/01 01:18:18;;;;;;;23.60;14.70;;;7.00;89.30;;;;;;5041516;28;20037;-64
2022/05/01 01:20:44;;;;;;;25.55;15.52;;;7.00;89.30;;;;;;5044283;28;20454;-65
2022/05/01 01:23:10;;;;;;;25.58;15.85;;;7.00;89.30;;;;;;5037613;28;20106;-64
2022/05/01 01:25:36;;;;;;;27.17;15.55;;;7.10;89.60;;;;;;5044134;28;20065;-64
2022/05/01 01:28:05;;;;;;;24.38;15.15;;;7.10;89.40;;;;;;5046520;28;20068;-64
2022/05/01 01:33:16;;;;;;;24.65;15.43;;;7.10;89.40;;;;;;5038413;28;20087;-64
2022/05/01 01:35:43;;;;;;;23.10;14.93;;;7.10;89.60;;;;;;5045181;28;20060;-64
2022/05/01 01:38:09;;;;;;;26.08;15.43;;;7.10;90.00;;;;;;5039613;28;20598;-65
2022/05/01 01:40:40;;;;;;;25.58;15.70;;;7.10;89.20;;;;;;5041826;28;20033;-64
2022/05/01 01:43:06;;;;;;;26.73;16.38;;;7.10;89.20;;;;;;5043757;28;20040;-64
2022/05/01 01:45:33;;;;;;;27.60;16.48;;;7.10;89.20;;;;;;5047999;28;20127;-65
2022/05/01 01:48:13;;;;;;;28.38;15.73;;;7.10;89.20;;;;;;5040876;28;20074;-64
2022/05/01 01:50:40;;;;;;;25.83;16.30;;;7.10;89.80;;;;;;5040361;28;20112;-64
2022/05/01 01:53:06;;;;;;;29.20;17.15;;;7.10;90.00;;;;;;5046579;28;20033;-64
2022/05/01 01:55:32;;;;;;;26.60;16.90;;;7.10;89.40;;;;;;5033464;28;20036;-64
2022/05/01 01:57:58;;;;;;;30.13;17.52;;;7.10;89.70;;;;;;5041940;28;20040;-64
2022/05/01 02:00:24;;;;;;;29.00;17.20;;;7.10;89.70;;;;;;5044343;28;20041;-64
2022/05/01 02:02:57;;;;;;;29.65;17.60;;;7.10;89.60;;;;;;5043953;28;20045;-64
2022/05/01 02:05:22;;;;;;;27.48;17.27;;;7.10;89.80;;;;;;5045100;28;20090;-64
2022/05/01 02:07:48;;;;;;;27.77;16.98;;;7.00;90.00;;;;;;5036222;28;20482;-65
2022/05/01 02:10:13;;;;;;;31.42;17.13;;;7.10;90.00;;;;;;5045760;28;20042;-64
2022/05/01 02:12:40;;;;;;;28.55;17.25;;;7.00;89.80;;;;;;5045769;28;20037;-64
2022/05/01 02:15:06;;;;;;;27.08;16.52;;;6.90;90.00;;;;;;5033352;28;20116;-64
2022/05/01 02:17:33;;;;;;;31.90;17.95;;;6.90;90.00;;;;;;5042411;28;20374;-64
2022/05/01 02:19:59;;;;;;;29.05;17.58;;;7.00;90.00;;;;;;5051171;28;20095;-64
2022/05/01 02:22:25;;;;;;;28.85;17.63;;;7.00;90.00;;;;;;5043350;28;20425;-64
2022/05/01 02:24:50;;;;;;;30.05;18.15;;;6.90;90.00;;;;;;5045632;28;20052;-64
2022/05/01 02:27:16;;;;;;;30.58;17.73;;;7.00;90.10;;;;;;5040093;28;20107;-64
2022/05/01 02:29:43;;;;;;;30.05;17.45;;;7.00;90.20;;;;;;5045993;28;20482;-65
2022/05/01 02:32:09;;;;;;;29.48;17.90;;;7.00;90.40;;;;;;5039306;28;20037;-64
2022/05/01 02:34:34;;;;;;;29.85;18.60;;;6.90;90.10;;;;;;5042609;28;20036;-64
2022/05/01 02:37:00;;;;;;;32.97;19.08;;;6.90;90.10;;;;;;5038967;28;20150;-65
2022/05/01 02:39:26;;;;;;;30.77;18.15;;;6.90;90.20;;;;;;5034698;28;20052;-64
2022/05/01 02:41:51;;;;;;;31.02;17.75;;;6.80;90.30;;;;;;5038563;28;20044;-64
2022/05/01 02:44:17;;;;;;;29.70;17.80;;;6.80;90.20;;;;;;5044490;28;20033;-65
2022/05/01 02:46:42;;;;;;;30.13;18.13;;;6.70;90.20;;;;;;5034837;28;20082;-64
2022/05/01 02:49:10;;;;;;;27.23;17.27;;;6.70;90.30;;;;;;5039823;28;20037;-64
2022/05/01 02:51:36;;;;;;;28.77;18.45;;;6.70;90.40;;;;;;5041024;28;20045;-65
2022/05/01 02:54:04;;;;;;;27.23;17.13;;;6.70;90.40;;;;;;5036868;28;20060;-64
2022/05/01 02:56:30;;;;;;;31.42;18.33;;;6.70;90.40;;;;;;5026051;28;20080;-64
2022/05/01 02:58:57;;;;;;;30.55;18.23;;;6.70;90.40;;;;;;5036999;28;20068;-64
2022/05/01 03:01:23;;;;;;;30.00;17.52;;;6.70;90.40;;;;;;5043771;28;20079;-64
2022/05/01 03:03:49;;;;;;;29.85;18.23;;;6.70;90.40;;;;;;5049526;28;20056;-65
2022/05/01 03:06:14;;;;;;;33.15;17.50;;;6.60;90.40;;;;;;5038097;28;20473;-64
2022/05/01 03:08:40;;;;;;;30.55;17.98;;;6.60;90.50;;;;;;5045407;28;20139;-64
2022/05/01 03:11:05;;;;;;;31.33;17.42;;;6.60;90.60;;;;;;5024162;28;20041;-64
2022/05/01 03:13:31;;;;;;;28.55;16.73;;;6.50;90.60;;;;;;5038391;28;21352;-64
2022/05/01 03:15:57;;;;;;;29.17;17.95;;;6.50;90.70;;;;;;5040143;28;20124;-64
2022/05/01 03:23:50;;;;;;;30.92;17.70;;;6.50;90.70;;;;;;5048386;28;20102;-65
2022/05/01 03:26:16;;;;;;;28.77;18.05;;;6.40;90.60;;;;;;5040224;28;20037;-65
2022/05/01 03:28:43;;;;;;;31.88;18.98;;;6.40;90.70;;;;;;5042908;28;20033;-64
2022/05/01 03:31:10;;;;;;;30.85;18.88;;;6.30;90.70;;;;;;5039266;28;20046;-64
2022/05/01 03:33:36;;;;;;;33.13;18.23;;;6.20;90.90;;;;;;5033386;28;20072;-64
2022/05/01 03:36:06;;;;;;;32.83;18.60;;;6.20;91.00;;;;;;5047095;28;23254;-65
2022/05/01 03:38:33;;;;;;;32.35;18.92;;;6.10;91.00;;;;;;5035822;28;20044;-64
2022/05/01 03:40:59;;;;;;;34.03;18.73;;;6.10;91.20;;;;;;5041021;28;20646;-64
2022/05/01 03:43:24;;;;;;;31.90;18.17;;;6.00;91.10;;;;;;5044737;28;20040;-64
2022/05/01 03:45:50;;;;;;;31.00;18.02;;;5.90;91.00;;;;;;5043868;28;20041;-64
2022/05/01 03:48:15;;;;;;;29.13;17.48;;;5.80;91.00;;;;;;5051577;28;20049;-64
2022/05/01 03:50:41;;;;;;;31.73;17.38;;;5.70;91.10;;;;;;5043867;28;20045;-65
2022/05/01 03:53:07;;;;;;;30.83;17.88;;;5.70;91.20;;;;;;5044875;28;20040;-64
2022/05/01 03:55:33;;;;;;;28.50;17.15;;;5.60;91.20;;;;;;5050309;28;20476;-65
2022/05/01 03:58:00;;;;;;;25.52;16.58;;;5.60;91.20;;;;;;5038232;28;20053;-65
2022/05/01 04:00:27;;;;;;;32.72;18.10;;;5.50;91.10;;;;;;5039932;28;20600;-64
2022/05/01 04:02:53;;;;;;;30.27;17.25;;;5.40;91.50;;;;;;5048883;28;20037;-64
2022/05/01 04:05:19;;;;;;;31.50;17.85;;;5.30;91.80;;;;;;5047726;28;20394;-65
2022/05/01 04:07:45;;;;;;;27.90;17.48;;;5.20;91.50;;;;;;5037965;28;20087;-65
2022/05/01 04:10:11;;;;;;;32.78;17.92;;;5.10;91.60;;;;;;5039200;28;20133;-64
2022/05/01 04:12:38;;;;;;;28.25;17.40;;;5.10;91.70;;;;;;5041041;28;20116;-64
2022/05/01 04:15:07;;;;;;;29.48;16.65;;;5.10;91.90;;;;;;5047819;28;20065;-65
2022/05/01 04:17:38;;;;;;;33.22;17.27;;;5.00;91.90;;;;;;5017002;28;20052;-65
2022/05/01 04:20:13;;;;;;;30.00;17.55;;;5.00;91.90;;;;;;5037580;28;20052;-65
2022/05/01 04:22:44;;;;;;;30.50;17.42;;;5.00;92.00;;;;;;5041389;28;20044;-65
2022/05/01 04:25:16;;;;;;;29.60;16.33;;;5.00;92.20;;;;;;5048709;28;20075;-65
2022/05/01 04:27:43;;;;;;;30.20;16.42;;;4.90;92.00;;;;;;5046679;28;20425;-65
2022/05/01 04:30:10;;;;;;;30.60;16.90;;;4.90;91.90;;;;;;5046942;28;20029;-65
2022/05/01 04:33:06;;;;;;;29.13;16.55;;;4.90;92.10;;;;;;5042086;28;20470;-64
2022/05/01 04:35:34;;;;;;;27.42;15.88;;;4.90;92.10;;;;;;5041761;28;20183;-65
2022/05/01 04:38:01;;;;;;;31.15;15.80;;;4.90;92.00;;;;;;5029982;28;20056;-64
2022/05/01 04:40:28;;;;;;;31.48;16.35;;;4.90;92.00;;;;;;5048472;28;20048;-65
2022/05/01 04:43:01;;;;;;;30.80;17.40;;;4.90;92.00;;;;;;5033427;28;20145;-65
2022/05/01 04:45:28;;;;;;;27.60;16.02;;;4.90;92.50;;;;;;5035813;28;20048;-64
2022/05/01 04:47:53;;;;;;;32.22;17.48;;;4.90;92.20;;;;;;5038096;28;20049;-64
2022/05/01 04:50:19;;;;;;;29.58;16.67;;;5.00;92.20;;;;;;5050421;28;20497;-64
2022/05/01 04:52:44;;;;;;;27.17;16.25;;;5.00;92.30;;;;;;5029247;28;20037;-65
2022/05/01 04:55:10;;;;;;;25.63;15.40;;;5.00;92.30;;;;;;5044767;28;20088;-65
2022/05/01 04:57:38;;;;;;;27.10;16.55;;;5.00;92.30;;;;;;5039341;28;20045;-65
2022/05/01 05:00:05;;;;;;;30.50;17.08;;;5.00;92.20;;;;;;5043906;28;20083;-64
2022/05/01 05:02:36;;;;;;;26.42;16.25;;;5.00;92.20;;;;;;5045245;28;20090;-65
2022/05/01 05:05:02;;;;;;;31.42;16.73;;;5.00;92.40;;;;;;5038330;28;20408;-65
2022/05/01 05:07:30;;;;;;;28.55;17.17;;;5.00;92.40;;;;;;5049163;28;20037;-65
2022/05/01 05:09:55;;;;;;;28.55;16.45;;;5.00;92.40;;;;;;5040482;28;20048;-65
2022/05/01 05:12:22;;;;;;;29.80;17.48;;;5.10;92.60;;;;;;5047553;28;20057;-64
2022/05/01 05:14:51;;;;;;;26.88;15.27;;;5.00;92.40;;;;;;5039504;28;20033;-65
2022/05/01 05:17:18;;;;;;;27.17;16.33;;;5.10;92.60;;;;;;5042365;28;20504;-65
2022/05/01 05:19:45;;;;;;;28.48;15.60;;;5.10;92.60;;;;;;5049042;28;20049;-65
2022/05/01 05:22:10;;;;;;;25.73;15.02;;;5.10;92.60;;;;;;5043691;28;20045;-64
2022/05/01 05:24:36;;;;;;;30.23;16.50;;;5.20;92.60;;;;;;5031647;28;20484;-65
2022/05/01 05:27:01;;;;;;;27.40;15.90;;;5.20;92.60;;;;;;5038401;28;20045;-64
2022/05/01 05:29:27;;;;;;;25.60;15.88;;;5.30;92.70;;;;;;5036085;28;20033;-65
2022/05/01 05:31:52;;;;;;;26.95;15.82;;;5.30;92.70;;;;;;5042151;28;20041;-65
2022/05/01 05:34:18;;;;;;;29.98;17.05;;;5.40;92.70;;;;;;5040024;28;20397;-65
2022/05/01 05:36:44;;;;;;;28.92;17.25;;;5.50;92.80;;;;;;5040331;28;20049;-65
2022/05/01 05:39:10;;;;;;;35.35;19.02;;;5.60;92.70;;;;;;5044948;28;20033;-65
2022/05/01 05:41:35;;;;;;;34.33;18.88;;;5.80;92.60;;;;;;5041652;28;20064;-65
2022/05/01 05:44:01;;;;;;;32.78;17.38;;;5.80;92.60;;;;;;5039334;28;20114;-65
2022/05/01 05:46:27;;;;;;;30.38;17.40;;;5.90;92.80;;;;;;5040248;28;20094;-65
2022/05/01 05:48:52;;;;;;;31.92;18.48;;;6.10;93.00;;;;;;5048563;28;20159;-66
2022/05/01 05:51:18;;;;;;;30.38;17.85;;;6.30;93.00;;;;;;5044122;28;21088;-65
2022/05/01 05:53:43;;;;;;;32.35;18.25;;;6.50;93.30;;;;;;5038832;28;20077;-65
2022/05/01 05:56:09;;;;;;;27.80;17.30;;;6.70;93.50;;;;;;5044221;28;20183;-66
2022/05/01 05:58:35;;;;;;;29.45;16.52;;;6.90;93.80;;;;;;5034335;28;20072;-65
2022/05/01 06:01:00;;;;;;;22.98;14.82;;;7.10;93.90;;;;;;5039540;28;20072;-66
2022/05/01 06:03:26;;;;;;;22.40;14.95;;;7.30;94.00;;;;;;5043191;28;20124;-65
2022/05/01 06:05:51;;;;;;;20.30;14.05;;;7.50;94.10;;;;;;5043370;28;20036;-66
2022/05/01 06:08:17;;;;;;;20.77;13.63;;;7.70;94.00;;;;;;5049735;28;20394;-66
2022/05/01 06:10:42;;;;;;;20.00;13.45;;;8.00;94.00;;;;;;5039957;28;20042;-66
2022/05/01 06:13:08;;;;;;;17.60;11.93;;;8.20;93.90;;;;;;5044991;28;20041;-66
2022/05/01 06:15:34;;;;;;;17.15;12.25;;;8.40;93.60;;;;;;5034791;28;20041;-66
2022/05/01 06:17:59;;;;;;;16.83;11.85;;;8.60;93.20;;;;;;5031753;28;20052;-66
2022/05/01 06:20:26;;;;;;;16.20;11.00;;;8.70;92.90;;;;;;5046907;28;20086;-67
2022/05/01 06:22:52;;;;;;;16.80;11.55;;;8.90;92.60;;;;;;5031994;28;20038;-66
2022/05/01 06:25:18;;;;;;;15.43;10.88;;;9.10;92.30;;;;;;5040879;28;20056;-67
2022/05/01 06:27:43;;;;;;;16.10;11.45;;;9.30;91.70;;;;;;5028082;28;20037;-67
2022/05/01 06:30:12;;;;;;;16.67;10.95;;;9.50;90.90;;;;;;5030949;28;20051;-67
2022/05/01 06:32:39;;;;;;;14.30;10.70;;;9.70;90.40;;;;;;5038072;28;20037;-67
2022/05/01 06:35:06;;;;;;;16.45;11.98;;;10.00;90.00;;;;;;5035315;28;20048;-67
2022/05/01 06:37:32;;;;;;;12.32;9.32;;;10.30;88.90;;;;;;5045690;28;20143;-67
2022/05/01 06:39:57;;;;;;;12.85;10.90;;;10.50;87.30;;;;;;5032856;28;20120;-67
2022/05/01 06:42:23;;;;;;;15.50;11.57;;;10.80;85.50;;;;;;5044069;28;20481;-67
2022/05/01 06:44:48;;;;;;;16.77;11.50;;;11.00;84.40;;;;;;5034872;28;20119;-67
2022/05/01 06:47:14;;;;;;;19.38;12.27;;;11.20;83.50;;;;;;5030426;28;20037;-67
2022/05/01 06:49:40;;;;;;;13.10;10.27;;;11.40;81.20;;;;;;5035711;28;20041;-66
2022/05/01 06:52:06;;;;;;;10.75;7.03;;;11.50;80.20;;;;;;5043227;28;20049;-67
2022/05/01 06:54:31;;;;;;;13.10;9.00;;;11.60;78.20;;;;;;5044811;28;20045;-67
2022/05/01 06:56:57;;;;;;;10.32;7.68;;;11.70;77.80;;;;;;5050106;28;20041;-67
2022/05/01 06:59:22;;;;;;;14.15;7.97;;;11.70;77.30;;;;;;5046242;28;20056;-67
2022/05/01 07:01:48;;;;;;;10.32;8.40;;;12.00;76.80;;;;;;5045135;28;20033;-67
2022/05/01 07:04:14;;;;;;;10.32;8.15;;;12.10;76.20;;;;;;5033164;28;20041;-67
2022/05/01 07:06:40;;;;;;;8.73;7.13;;;12.30;75.80;;;;;;5035666;28;20065;-67
2022/05/01 07:09:06;;;;;;;13.88;9.77;;;12.40;74.40;;;;;;5038801;28;20066;-67
2022/05/01 07:11:32;;;;;;;11.98;9.85;;;12.60;73.20;;;;;;5043345;28;20065;-67
2022/05/01 07:13:57;;;;;;;10.98;8.52;;;12.70;72.80;;;;;;5039651;28;20499;-67
2022/05/01 07:16:23;;;;;;;9.57;7.03;;;12.80;72.60;;;;;;5048679;28;20496;-68
2022/05/01 07:18:49;;;;;;;8.32;5.43;;;12.80;71.40;;;;;;5048422;28;20099;-67
2022/05/01 07:21:14;;;;;;;7.50;5.78;;;13.20;70.40;;;;;;5038682;28;20065;-67
2022/05/01 07:23:40;;;;;;;8.23;5.70;;;13.30;67.20;;;;;;5050549;28;20048;-67
2022/05/01 07:26:05;;;;;;;8.02;5.72;;;13.50;66.90;;;;;;5044709;28;20036;-66
2022/05/01 07:28:32;;;;;;;7.05;4.88;;;13.40;65.60;;;;;;5049024;28;20474;-67
2022/05/01 07:30:59;;;;;;;6.97;4.75;;;13.60;65.20;;;;;;5050653;28;20556;-68
2022/05/01 07:33:25;;;;;;;7.65;5.70;;;13.70;64.50;;;;;;5046354;28;20513;-66
2022/05/01 07:35:51;;;;;;;8.82;5.53;;;13.90;64.30;;;;;;5050721;28;20037;-66
2022/05/01 07:38:17;;;;;;;6.28;4.97;;;14.10;63.90;;;;;;5051090;28;20485;-67
2022/05/01 07:40:43;;;;;;;7.60;5.78;;;14.40;63.20;;;;;;5045689;28;20061;-66
2022/05/01 07:43:09;;;;;;;7.18;6.15;;;14.50;61.90;;;;;;5032352;28;20059;-67
2022/05/01 07:45:35;;;;;;;10.27;6.07;;;14.60;61.80;;;;;;5033780;28;20052;-67
2022/05/01 07:48:01;;;;;;;9.80;5.65;;;15.00;61.40;;;;;;5048039;28;20247;-67
2022/05/01 07:50:27;;;;;;;9.70;5.60;;;15.10;60.60;;;;;;5035083;28;20555;-67
2022/05/01 07:52:53;;;;;;;5.70;5.00;;;15.40;59.40;;;;;;5036083;28;20535;-67
2022/05/01 07:55:18;;;;;;;7.53;4.60;;;15.70;58.90;;;;;;5041502;28;20132;-68
2022/05/01 07:57:44;;;;;;;7.43;4.18;;;16.10;58.30;;;;;;5041845;28;20378;-68
2022/05/01 08:00:10;;;;;;;6.15;4.28;;;16.20;57.80;;;;;;5050579;28;20465;-66
2022/05/01 08:04:27;;;;;;;6.53;5.03;;;16.20;57.80;;;;;;5047560;28;20041;-67
2022/05/01 08:05:27;;;;;;;6.18;5.28;;;16.40;56.40;;;;;;5042140;28;20057;-67
2022/05/01 08:07:53;;;;;;;6.82;5.13;;;16.50;55.70;;;;;;5043303;28;20045;-67
2022/05/01 08:10:20;;;;;;;6.43;4.65;;;16.50;55.60;;;;;;5045094;28;20436;-68
2022/05/01 08:12:46;;;;;;;5.57;4.68;;;16.60;55.30;;;;;;5035554;28;20124;-68
2022/05/01 08:15:15;;;;;;;6.88;4.93;;;17.00;54.30;;;;;;5045288;28;20116;-67
2022/05/01 08:17:40;;;;;;;5.40;4.47;;;17.10;53.10;;;;;;5046969;28;20095;-67
2022/05/01 08:22:50;;;;;;;7.78;5.70;;;17.20;52.20;;;;;;5045760;28;20048;-69
2022/05/01 08:25:16;;;;;;;7.15;5.63;;;17.70;51.40;;;;;;5035717;28;20043;-67
2022/05/01 08:27:41;;;;;;;8.63;5.90;;;18.10;49.80;;;;;;5033818;28;20038;-65
2022/05/01 08:30:07;;;;;;;6.13;5.53;;;18.30;47.80;;;;;;5045596;28;20056;-67
2022/05/01 08:32:33;;;;;;;7.40;5.47;;;18.30;47.80;;;;;;5021924;28;20440;-67
2022/05/01 08:34:58;;;;;;;5.70;4.45;;;18.00;48.00;;;;;;5044322;28;20075;-67
2022/05/01 08:37:24;;;;;;;6.28;4.75;;;18.00;48.40;;;;;;5040697;28;20095;-68
2022/05/01 08:39:49;;;;;;;5.85;4.10;;;18.30;48.00;;;;;;5048363;28;20110;-68
2022/05/01 08:42:15;;;;;;;5.28;4.20;;;18.10;47.40;;;;;;5045706;28;20102;-68
2022/05/01 08:44:40;;;;;;;6.60;4.13;;;17.80;47.00;;;;;;5045570;28;20107;-67
2022/05/01 08:47:35;;;;;;;6.22;4.25;;;17.50;47.30;;;;;;5034428;28;20604;-67
2022/05/01 08:50:01;;;;;;;5.15;4.07;;;17.90;44.40;;;;;;5039481;28;20042;-68
2022/05/01 08:52:29;;;;;;;8.00;4.80;;;17.90;46.50;;;;;;5034027;28;20365;-67
2022/05/01 08:54:57;;;;;;;5.63;4.35;;;18.80;45.10;;;;;;5043852;28;20053;-67
2022/05/01 08:57:23;;;;;;;5.53;4.55;;;18.20;44.30;;;;;;5040050;28;20045;-67
2022/05/01 08:59:53;;;;;;;5.75;4.47;;;17.70;45.00;;;;;;5036785;28;20048;-67
2022/05/01 09:02:19;;;;;;;6.40;4.85;;;17.80;44.30;;;;;;5037269;28;20460;-67
2022/05/01 09:04:45;;;;;;;7.97;4.95;;;17.70;44.60;;;;;;5042175;28;20054;-68
2022/05/01 09:07:12;;;;;;;5.88;4.28;;;17.20;45.20;;;;;;5040307;28;20346;-68
2022/05/01 09:09:37;;;;;;;7.55;5.03;;;16.80;46.50;;;;;;5042371;28;20072;-68
2022/05/01 09:14:50;;;;;;;7.25;4.88;;;16.50;46.90;;;;;;5040676;28;20419;-67
2022/05/01 09:17:21;;;;;;;6.95;5.55;;;16.10;46.20;;;;;;5046215;28;20041;-67
2022/05/01 09:20:04;;;;;;;6.07;4.28;;;16.10;47.00;;;;;;5048904;28;20040;-67
2022/05/01 09:22:47;;;;;;;6.45;4.43;;;16.00;47.60;;;;;;5042404;28;20095;-67
2022/05/01 09:25:17;;;;;;;6.25;4.72;;;16.60;47.10;;;;;;5032001;28;20052;-67
2022/05/01 09:27:43;;;;;;;;;;;17.10;46.30;;;;;;5011479;28;20041;-67
2022/05/01 09:30:09;;;;;;;6.13;4.57;;;17.10;44.10;;;;;;5031707;28;19925;-67
2022/05/01 09:32:40;;;;;;;6.30;4.43;;;17.10;45.90;;;;;;5038270;28;20066;-67
2022/05/01 09:35:10;;;;;;;6.65;4.43;;;17.20;45.80;;;;;;5032554;28;20894;-67
2022/05/01 09:37:36;;;;;;;5.43;4.63;;;17.50;45.70;;;;;;5030747;28;20056;-67
2022/05/01 09:40:02;;;;;;;5.60;4.22;;;17.30;45.90;;;;;;5028791;28;20390;-67
2022/05/01 09:42:34;;;;;;;5.78;4.40;;;17.50;46.00;;;;;;5028963;28;20059;-67
2022/05/01 09:45:07;;;;;;;4.68;4.18;;;17.40;45.40;;;;;;5031044;28;20127;-66
2022/05/01 09:47:41;;;;;;;6.63;4.10;;;17.30;44.80;;;;;;5044590;28;20135;-65
2022/05/01 09:50:08;;;;;;;8.90;4.90;;;17.60;44.40;;;;;;5042281;28;20060;-67
2022/05/01 09:52:53;;;;;;;7.43;4.35;;;17.80;43.80;;;;;;5052751;28;20033;-66
2022/05/01 09:55:19;;;;;;;5.57;4.10;;;17.80;42.40;;;;;;5030490;28;20041;-66
2022/05/01 09:57:44;;;;;;;4.82;4.20;;;17.70;43.10;;;;;;5040137;28;20079;-67
2022/05/01 10:00:10;;;;;;;4.72;4.22;;;17.30;43.60;;;;;;5055783;28;20054;-67
2022/05/01 10:02:36;;;;;;;5.93;4.05;;;16.90;44.60;;;;;;5032585;28;20037;-67
2022/05/01 10:05:06;;;;;;;5.53;3.85;;;16.60;45.30;;;;;;5033143;28;20056;-67
2022/05/01 10:07:37;;;;;;;6.28;4.25;;;16.30;46.20;;;;;;5033054;28;20029;-67
2022/05/01 10:10:07;;;;;;;7.30;4.70;;;16.00;46.00;;;;;;5040316;28;20079;-67
2022/05/01 10:12:43;;;;;;;5.00;4.00;;;15.90;46.80;;;;;;5035325;28;20037;-66
2022/05/01 10:15:10;;;;;;;7.95;4.15;;;15.80;47.10;;;;;;5042494;28;20040;-67
2022/05/01 10:17:38;;;;;;;3.90;3.50;;;15.70;47.40;;;;;;5048699;28;20543;-67
2022/05/01 10:20:03;;;;;;;5.95;3.92;;;15.60;47.00;;;;;;5043894;28;20370;-66
2022/05/01 10:22:31;;;;;;;4.75;4.05;;;15.60;47.20;;;;;;5045236;28;20044;-66
2022/05/01 10:24:57;;;;;;;6.57;3.90;;;15.70;47.20;;;;;;5047379;28;20100;-66
2022/05/01 10:27:42;;;;;;;5.63;4.18;;;15.80;47.00;;;;;;5038380;28;22118;-66
2022/05/01 10:33:26;;;;;;;5.72;3.78;;;15.60;44.60;;;;;;5040631;28;20049;-66
2022/05/01 10:36:04;;;;;;;;;;;15.70;45.50;;;;;;5042822;28;20571;-66
2022/05/01 10:38:39;;;;;;;6.13;4.07;;;15.70;45.70;;;;;;5043185;28;19955;-66
2022/05/01 10:41:06;;;;;;;6.40;4.10;;;15.70;44.60;;;;;;5029276;28;20037;-66
2022/05/01 10:43:36;;;;;;;4.97;3.70;;;15.70;45.10;;;;;;5033040;28;20041;-67
2022/05/01 10:46:17;;;;;;;6.05;3.92;;;15.30;45.00;;;;;;5036453;28;20107;-66
2022/05/01 10:48:42;;;;;;;4.95;3.80;;;15.10;46.00;;;;;;5041518;28;20048;-67
2022/05/01 10:51:30;;;;;;;8.70;4.05;;;15.30;46.60;;;;;;5031943;28;20037;-66
2022/05/01 10:54:10;;;;;;;4.68;3.97;;;15.40;47.50;;;;;;5043847;28;20066;-66
2022/05/01 10:57:05;;;;;;;5.35;3.40;;;15.60;46.00;;;;;;5033664;28;20127;-66
2022/05/01 10:59:31;;;;;;;4.80;2.95;;;15.40;45.40;;;;;;5037069;28;20088;-66
2022/05/01 11:02:03;;;;;;;5.13;3.25;;;15.50;46.00;;;;;;5040072;28;20033;-66
2022/05/01 11:04:41;;;;;;;4.38;3.50;;;15.70;45.70;;;;;;5038383;28;20545;-67
2022/05/01 11:07:10;;;;;;;6.13;3.58;;;15.70;45.90;;;;;;5042751;28;20056;-67
2022/05/01 11:09:36;;;;;;;5.32;3.85;;;15.60;45.60;;;;;;5049066;28;20044;-67
2022/05/01 11:12:04;;;;;;;4.57;3.65;;;15.40;46.30;;;;;;5039610;28;20041;-67
2022/05/01 11:14:40;;;;;;;5.78;3.80;;;15.40;47.00;;;;;;5045261;28;20459;-67
2022/05/01 11:17:08;;;;;;;5.50;3.78;;;15.30;46.50;;;;;;5047701;28;20120;-67
2022/05/01 11:19:45;;;;;;;7.43;4.00;;;15.00;46.30;;;;;;5068846;28;20040;-67
2022/05/01 11:22:12;;;;;;;5.85;3.70;;;15.30;46.10;;;;;;5048261;28;20042;-67
2022/05/01 11:24:45;;;;;;;4.32;3.20;;;15.30;45.90;;;;;;5048009;28;20158;-67
2022/05/01 11:27:10;;;;;;;5.03;3.75;;;15.30;45.50;;;;;;5046392;28;20550;-66
2022/05/01 11:29:37;;;;;;;6.10;3.35;;;15.40;45.70;;;;;;5033666;28;20099;-66
2022/05/01 11:32:17;;;;;;;5.43;3.50;;;15.60;45.40;;;;;;5042727;28;20132;-67
2022/05/01 11:34:51;;;;;;;5.70;3.50;;;15.80;44.50;;;;;;5042925;28;20069;-66
2022/05/01 11:37:18;;;;;;;4.47;3.40;;;15.80;43.60;;;;;;5044919;28;20036;-67
2022/05/01 11:39:46;;;;;;;5.07;3.50;;;16.00;43.90;;;;;;5047394;28;20073;-67
2022/05/01 11:42:25;;;;;;;4.07;3.15;;;16.00;43.40;;;;;;5045512;28;20097;-66
2022/05/01 11:44:55;;;;;;;4.70;3.17;;;16.20;43.00;;;;;;5033043;28;20044;-67
2022/05/01 11:47:22;;;;;;;;;;;16.00;43.10;;;;;;5034815;28;20396;-67
2022/05/01 11:49:47;;;;;;;4.93;3.40;;;16.00;43.00;;;;;;5043543;28;20006;-67
2022/05/01 11:52:14;;;;;;;5.40;3.15;;;16.20;43.40;;;;;;5049480;28;20125;-67
2022/05/01 11:54:43;;;;;;;4.78;3.40;;;16.40;42.90;;;;;;5045651;28;20103;-68
2022/05/01 12:02:39;;;;;;;5.97;3.63;;;16.70;42.20;;;;;;5032813;28;20084;-66
2022/05/01 12:05:05;;;;;;;5.72;3.40;;;16.60;41.70;;;;;;5037604;28;20056;-67
2022/05/01 12:07:31;;;;;;;4.65;3.10;;;16.60;42.00;;;;;;5050376;28;20087;-67
2022/05/01 12:09:57;;;;;;;3.60;3.05;;;16.50;42.40;;;;;;5052093;28;20123;-67
2022/05/01 12:12:29;;;;;;;6.57;3.38;;;16.70;42.40;;;;;;5050555;28;20461;-67
2022/05/01 12:14:55;;;;;;;5.38;3.50;;;16.80;42.00;;;;;;5050370;28;20063;-67
2022/05/01 12:17:21;;;;;;;5.75;3.20;;;16.70;42.30;;;;;;5035311;28;20057;-66
2022/05/01 12:19:49;;;;;;;6.07;3.40;;;16.40;42.20;;;;;;5052385;28;20077;-66
2022/05/01 12:22:19;;;;;;;5.40;3.55;;;16.30;42.80;;;;;;5053724;28;20040;-67
2022/05/01 12:24:46;;;;;;;5.03;2.88;;;16.20;42.70;;;;;;5043618;28;20036;-66
2022/05/01 12:27:12;;;;;;;4.72;3.67;;;16.10;43.30;;;;;;5035938;28;20034;-67
2022/05/01 12:29:45;;;;;;;5.82;3.85;;;16.10;43.30;;;;;;5032198;28;20887;-67
2022/05/01 12:32:13;;;;;;;5.50;3.92;;;15.90;43.20;;;;;;5042982;28;20704;-67
2022/05/01 12:34:40;;;;;;;5.72;3.20;;;15.80;43.30;;;;;;5045156;28;20115;-66
2022/05/01 12:37:20;;;;;;;4.93;3.97;;;15.70;43.30;;;;;;5037265;28;20087;-67
2022/05/01 12:40:07;;;;;;;4.97;3.13;;;15.50;43.40;;;;;;5042856;28;20358;-67
2022/05/01 12:45:37;;;;;;;5.47;3.80;;;15.60;45.00;;;;;;5032231;28;20374;-66
2022/05/01 12:48:07;;;;;;;5.22;3.53;;;15.50;45.10;;;;;;5033461;28;20037;-67
2022/05/01 12:50:37;;;;;;;6.00;3.45;;;15.50;45.00;;;;;;5035716;28;20049;-66
2022/05/01 12:53:30;;;;;;;5.25;3.28;;;15.40;44.90;;;;;;5030853;28;20051;-67
2022/05/01 12:55:57;;;;;;;6.38;4.00;;;15.30;45.00;;;;;;5048311;28;20052;-67
2022/05/01 12:58:32;;;;;;;8.18;4.05;;;15.20;44.90;;;;;;5033415;28;20049;-67
2022/05/01 13:00:59;;;;;;;5.80;3.97;;;15.20;45.70;;;;;;5049542;28;20056;-67
2022/05/01 13:03:30;;;;;;;5.63;3.78;;;15.20;45.90;;;;;;5051223;28;20525;-67
2022/05/01 13:06:02;;;;;;;6.18;3.63;;;15.40;46.20;;;;;;5030218;28;20053;-67
2022/05/01 13:08:32;;;;;;;5.65;3.78;;;15.40;46.20;;;;;;5036275;28;20669;-67
2022/05/01 13:11:23;;;;;;;5.90;3.60;;;15.50;45.80;;;;;;5050298;28;20214;-66
2022/05/01 13:14:05;;;;;;;7.20;3.95;;;15.80;44.00;;;;;;5045203;28;20116;-66